createdAt,value
2019-02-10T00:00:36.992Z,30.32
2019-02-10T00:03:05.399Z,29.32
2019-02-10T00:05:33.788Z,27.70
2019-02-10T00:08:02.211Z,28.32
2019-02-10T00:10:30.612Z,27.55
2019-02-10T00:13:21.920Z,29.92
2019-02-10T00:15:50.343Z,27.60
2019-02-10T00:18:18.902Z,28.02
2019-02-10T00:20:47.311Z,27.60
2019-02-10T00:23:15.712Z,28.45
2019-02-10T00:25:44.179Z,29.82
2019-02-10T00:28:12.578Z,28.15
2019-02-10T00:30:40.983Z,31.97
2019-02-10T00:33:09.426Z,29.40
2019-02-10T00:35:37.820Z,28.50
2019-02-10T00:38:06.248Z,29.35
2019-02-10T00:40:34.729Z,29.40
2019-02-10T00:43:04.033Z,30.30
2019-02-10T00:45:32.431Z,29.05
2019-02-10T00:48:00.832Z,29.72
2019-02-10T00:50:29.259Z,29.48
2019-02-10T00:52:57.669Z,30.12
2019-02-10T00:55:26.063Z,31.23
2019-02-10T00:57:54.476Z,29.25
2019-02-10T01:00:22.878Z,25.48
2019-02-10T01:02:51.369Z,30.72
2019-02-10T01:05:19.771Z,30.00
2019-02-10T01:07:48.165Z,35.35
2019-02-10T01:10:16.836Z,32.90
2019-02-10T01:12:45.236Z,31.05
2019-02-10T01:15:13.728Z,27.82
2019-02-10T01:17:42.124Z,29.42
2019-02-10T01:20:10.515Z,29.40
2019-02-10T01:22:38.911Z,28.65
2019-02-10T01:25:08.019Z,29.82
2019-02-10T01:27:36.447Z,29.30
2019-02-10T01:30:08.104Z,30.20
2019-02-10T01:32:36.504Z,29.95
2019-02-10T01:35:04.962Z,30.10
2019-02-10T01:37:33.423Z,27.45
2019-02-10T01:40:01.880Z,27.22
2019-02-10T01:42:30.271Z,30.65
2019-02-10T01:44:59.599Z,28.83
2019-02-10T01:47:28.063Z,31.70
2019-02-10T01:49:56.498Z,28.87
2019-02-10T01:52:24.919Z,28.90
2019-02-10T01:54:53.313Z,27.20
2019-02-10T01:57:21.716Z,29.50
2019-02-10T01:59:50.111Z,27.50
2019-02-10T02:02:18.515Z,27.77
2019-02-10T02:04:46.958Z,27.50
2019-02-10T02:07:15.417Z,27.25
2019-02-10T02:09:43.889Z,29.20
2019-02-10T02:12:12.292Z,29.77
2019-02-10T02:14:40.684Z,26.70
2019-02-10T02:17:09.110Z,26.80
2019-02-10T02:19:37.503Z,24.63
2019-02-10T02:22:05.904Z,25.45
2019-02-10T02:24:34.295Z,25.30
2019-02-10T02:27:02.692Z,27.98
2019-02-10T02:29:31.123Z,26.33
2019-02-10T02:31:59.526Z,26.82
2019-02-10T02:34:27.920Z,25.72
2019-02-10T02:36:56.308Z,28.52
2019-02-10T02:39:24.703Z,27.98
2019-02-10T02:41:53.201Z,25.60
2019-02-10T02:44:21.663Z,25.88
2019-02-10T02:46:50.121Z,25.82
2019-02-10T02:49:18.515Z,25.52
2019-02-10T02:51:46.918Z,24.80
2019-02-10T02:54:15.361Z,25.17
2019-02-10T02:56:43.749Z,26.17
2019-02-10T02:59:12.156Z,25.02
2019-02-10T03:01:40.551Z,26.62
2019-02-10T03:04:08.948Z,23.65
2019-02-10T03:06:45.996Z,24.75
2019-02-10T03:09:14.557Z,26.33
2019-02-10T03:11:42.963Z,27.35
2019-02-10T03:14:11.356Z,24.25
2019-02-10T03:16:39.758Z,25.10
2019-02-10T03:19:08.249Z,23.95
2019-02-10T03:21:36.650Z,23.73
2019-02-10T03:24:05.056Z,23.38
2019-02-10T03:26:33.461Z,24.27
2019-02-10T03:29:01.861Z,22.58
2019-02-10T03:31:30.309Z,21.52
2019-02-10T03:34:18.156Z,22.48
2019-02-10T03:36:46.551Z,20.97
2019-02-10T03:39:14.951Z,21.42
2019-02-10T03:41:43.448Z,21.02
2019-02-10T03:44:11.845Z,21.02
2019-02-10T03:46:40.242Z,22.22
2019-02-10T03:49:08.666Z,21.50
2019-02-10T03:51:37.078Z,20.75
2019-02-10T03:54:05.472Z,21.82
2019-02-10T03:56:33.875Z,20.97
2019-02-10T03:59:02.267Z,22.15
2019-02-10T04:01:30.666Z,20.48
2019-02-10T04:03:59.096Z,20.57
2019-02-10T04:06:33.200Z,20.77
2019-02-10T04:09:01.618Z,21.17
2019-02-10T04:11:30.037Z,24.67
2019-02-10T04:13:58.432Z,19.95
2019-02-10T04:16:26.827Z,21.42
2019-02-10T04:18:55.220Z,20.05
2019-02-10T04:21:23.644Z,20.48
2019-02-10T04:23:52.044Z,20.23
2019-02-10T04:26:20.443Z,20.30
2019-02-10T04:28:48.844Z,20.35
2019-02-10T04:31:17.251Z,19.45
2019-02-10T04:33:45.673Z,19.92
2019-02-10T04:36:14.072Z,19.20
2019-02-10T04:38:42.460Z,18.87
2019-02-10T04:41:10.860Z,17.52
2019-02-10T04:43:39.264Z,20.17
2019-02-10T04:46:07.688Z,17.70
2019-02-10T04:48:36.085Z,17.52
2019-02-10T04:51:04.483Z,17.25
2019-02-10T04:53:32.898Z,16.40
2019-02-10T04:56:09.409Z,16.80
2019-02-10T04:58:37.799Z,16.93
2019-02-10T05:01:06.211Z,15.15
2019-02-10T05:03:34.629Z,17.92
2019-02-10T05:06:03.032Z,16.55
2019-02-10T05:08:31.413Z,16.77
2019-02-10T05:10:59.961Z,15.45
2019-02-10T05:13:28.364Z,15.78
2019-02-10T05:15:56.787Z,15.68
2019-02-10T05:18:25.183Z,15.68
2019-02-10T05:20:53.584Z,15.32
2019-02-10T05:23:21.988Z,15.32
2019-02-10T05:25:50.384Z,15.60
2019-02-10T05:28:18.812Z,17.05
2019-02-10T05:30:47.208Z,15.85
2019-02-10T05:33:15.597Z,14.63
2019-02-10T05:35:43.997Z,15.85
2019-02-10T05:38:12.460Z,14.78
2019-02-10T05:40:40.883Z,16.93
2019-02-10T05:43:09.284Z,17.00
2019-02-10T05:45:37.681Z,15.15
2019-02-10T05:48:06.153Z,14.43
2019-02-10T05:50:34.549Z,15.15
2019-02-10T05:53:02.967Z,15.10
2019-02-10T05:55:31.364Z,16.55
2019-02-10T05:57:59.764Z,15.13
2019-02-10T06:00:29.336Z,15.68
2019-02-10T06:02:57.732Z,15.10
2019-02-10T06:05:26.179Z,15.78
2019-02-10T06:07:54.573Z,13.98
2019-02-10T06:10:22.963Z,15.03
2019-02-10T06:12:51.369Z,15.28
2019-02-10T06:15:19.768Z,13.95
2019-02-10T06:17:48.163Z,13.40
2019-02-10T06:20:16.563Z,13.38
2019-02-10T06:22:44.955Z,13.35
2019-02-10T06:25:13.355Z,13.65
2019-02-10T06:27:41.759Z,12.58
2019-02-10T06:30:10.743Z,11.90
2019-02-10T06:32:39.280Z,12.88
2019-02-10T06:35:09.040Z,13.08
2019-02-10T06:37:37.436Z,12.60
2019-02-10T06:40:07.692Z,13.20
2019-02-10T06:42:36.097Z,11.63
2019-02-10T06:45:07.023Z,12.03
2019-02-10T06:47:35.426Z,11.63
2019-02-10T06:50:05.360Z,12.45
2019-02-10T06:52:33.743Z,13.18
2019-02-10T06:55:02.188Z,12.65
2019-02-10T06:57:30.596Z,12.55
2019-02-10T07:00:00.624Z,12.33
2019-02-10T07:02:30.692Z,11.28
2019-02-10T07:04:59.095Z,13.60
2019-02-10T07:07:27.544Z,13.85
2019-02-10T07:09:58.844Z,12.37
2019-02-10T07:12:50.395Z,12.13
2019-02-10T07:15:55.299Z,12.03
2019-02-10T07:19:00.070Z,14.28
2019-02-10T07:21:33.445Z,12.15
2019-02-10T07:24:25.004Z,12.47
2019-02-10T07:26:54.635Z,13.08
2019-02-10T07:29:50.451Z,13.68
2019-02-10T07:32:22.179Z,11.43
2019-02-10T07:34:59.836Z,10.72
2019-02-10T07:37:37.537Z,11.88
2019-02-10T07:40:26.609Z,11.53
2019-02-10T07:43:14.703Z,10.95
2019-02-10T07:45:49.523Z,10.60
2019-02-10T07:48:26.996Z,10.28
2019-02-10T07:51:01.390Z,10.30
2019-02-10T07:53:39.979Z,10.45
2019-02-10T07:56:33.853Z,11.57
2019-02-10T07:59:15.449Z,11.08
2019-02-10T08:02:14.317Z,9.60
2019-02-10T08:05:21.872Z,9.83
2019-02-10T08:08:02.282Z,8.95
2019-02-10T08:10:42.536Z,8.60
2019-02-10T08:13:30.516Z,10.03
2019-02-10T08:16:13.920Z,8.78
2019-02-10T08:18:57.467Z,9.23
2019-02-10T08:21:38.628Z,8.30
2019-02-10T08:24:16.015Z,7.87
2019-02-10T08:26:57.357Z,8.95
2019-02-10T08:29:31.641Z,8.08
2019-02-10T08:32:15.059Z,7.92
2019-02-10T08:34:55.736Z,10.68
2019-02-10T08:37:39.330Z,10.98
2019-02-10T08:40:32.036Z,9.95
2019-02-10T08:43:24.440Z,10.63
2019-02-10T08:46:13.003Z,8.65
2019-02-10T08:48:56.825Z,8.83
2019-02-10T08:51:55.452Z,10.68
2019-02-10T08:54:23.845Z,10.20
2019-02-10T08:56:53.335Z,12.30
2019-02-10T08:59:21.731Z,11.28
2019-02-10T09:01:50.803Z,11.55
2019-02-10T09:04:19.203Z,11.03
2019-02-10T09:06:47.599Z,11.22
2019-02-10T09:09:16.084Z,10.65
2019-02-10T09:11:44.552Z,11.88
2019-02-10T09:14:12.944Z,11.45
2019-02-10T09:16:41.421Z,12.18
2019-02-10T09:19:09.810Z,12.05
2019-02-10T09:21:38.275Z,11.10
2019-02-10T09:24:06.723Z,12.82
2019-02-10T09:26:35.123Z,12.33
2019-02-10T09:29:03.524Z,12.20
2019-02-10T09:31:33.169Z,10.68
2019-02-10T09:34:01.857Z,10.93
2019-02-10T09:36:30.320Z,11.60
2019-02-10T09:39:00.372Z,10.45
2019-02-10T09:41:28.769Z,10.15
2019-02-10T09:43:57.164Z,9.08
2019-02-10T09:46:25.595Z,10.88
2019-02-10T09:48:54.151Z,10.28
2019-02-10T09:51:25.436Z,11.03
2019-02-10T09:53:53.840Z,11.97
2019-02-10T09:56:22.232Z,10.90
2019-02-10T09:58:50.772Z,12.28
2019-02-10T10:01:19.243Z,10.38
2019-02-10T10:03:47.726Z,10.35
2019-02-10T10:06:16.192Z,9.73
2019-02-10T10:08:44.749Z,12.80
2019-02-10T10:11:13.176Z,12.60
2019-02-10T10:13:41.595Z,11.30
2019-02-10T10:16:10.000Z,11.83
2019-02-10T10:18:38.392Z,10.85
2019-02-10T10:21:06.795Z,12.40
2019-02-10T10:23:35.250Z,21.20
2019-02-10T10:26:03.681Z,15.93
2019-02-10T10:28:32.232Z,11.85
2019-02-10T10:31:00.639Z,11.50
2019-02-10T10:33:29.037Z,11.88
2019-02-10T10:35:57.572Z,12.82
2019-02-10T10:38:45.403Z,11.43
2019-02-10T10:41:13.904Z,11.55
2019-02-10T10:43:42.299Z,10.45
2019-02-10T10:46:10.701Z,10.23
2019-02-10T10:48:40.159Z,9.08
2019-02-10T10:51:08.621Z,10.30
2019-02-10T10:53:37.040Z,8.88
2019-02-10T10:56:05.463Z,10.13
2019-02-10T10:58:33.923Z,9.23
2019-02-10T11:01:02.408Z,9.38
2019-02-10T11:03:30.808Z,9.05
2019-02-10T11:05:59.300Z,8.05
2019-02-10T11:08:27.844Z,8.23
2019-02-10T11:10:56.244Z,8.18
2019-02-10T11:13:24.643Z,7.70
2019-02-10T11:15:53.035Z,8.23
2019-02-10T11:18:21.525Z,8.33
2019-02-10T11:20:49.938Z,8.13
2019-02-10T11:23:18.345Z,8.38
2019-02-10T11:25:46.764Z,7.97
2019-02-10T11:28:15.179Z,8.25
2019-02-10T11:30:43.671Z,7.42
2019-02-10T11:33:12.632Z,7.30
2019-02-10T11:35:41.168Z,7.53
2019-02-10T11:38:09.575Z,7.05
2019-02-10T11:40:37.973Z,8.45
2019-02-10T11:43:06.403Z,7.80
2019-02-10T11:45:34.964Z,7.50
2019-02-10T11:48:03.426Z,7.15
2019-02-10T11:50:31.819Z,8.65
2019-02-10T11:53:00.211Z,7.70
2019-02-10T11:55:28.761Z,7.12
2019-02-10T11:57:57.151Z,7.30
2019-02-10T12:00:25.552Z,7.12
2019-02-10T12:02:53.951Z,7.53
2019-02-10T12:05:22.344Z,7.37
2019-02-10T12:07:50.832Z,7.90
2019-02-10T12:10:19.291Z,7.42
2019-02-10T12:12:47.700Z,7.53
2019-02-10T12:15:25.133Z,7.78
2019-02-10T12:17:53.592Z,9.03
2019-02-10T12:20:22.015Z,7.60
2019-02-10T12:22:50.604Z,8.05
2019-02-10T12:25:19.121Z,7.45
2019-02-10T12:27:47.511Z,8.03
2019-02-10T12:30:16.956Z,8.15
2019-02-10T12:32:45.368Z,7.80
2019-02-10T12:35:13.769Z,7.65
2019-02-10T12:37:42.175Z,8.65
2019-02-10T12:40:11.708Z,9.18
2019-02-10T12:42:40.099Z,8.75
2019-02-10T12:45:11.024Z,9.78
2019-02-10T12:47:39.425Z,9.58
2019-02-10T12:50:12.581Z,8.05
2019-02-10T12:52:41.066Z,8.30
2019-02-10T12:55:10.691Z,8.78
2019-02-10T12:57:39.885Z,7.67
2019-02-10T13:00:20.046Z,7.87
2019-02-10T13:02:48.475Z,7.92
2019-02-10T13:05:16.874Z,7.17
2019-02-10T13:07:45.265Z,9.65
2019-02-10T13:10:17.447Z,8.00
2019-02-10T13:12:45.092Z,9.43
2019-02-10T13:15:13.782Z,10.08
2019-02-10T13:17:42.253Z,10.98
2019-02-10T13:20:13.824Z,9.15
2019-02-10T13:22:42.316Z,9.30
2019-02-10T13:25:14.919Z,12.33
2019-02-10T13:27:43.423Z,11.45
2019-02-10T13:30:16.824Z,8.78
2019-02-10T13:32:45.275Z,8.50
2019-02-10T13:35:13.683Z,8.30
2019-02-10T13:37:42.156Z,7.87
2019-02-10T13:40:17.104Z,9.15
2019-02-10T13:42:45.614Z,8.70
2019-02-10T13:45:14.090Z,8.90
2019-02-10T13:47:42.488Z,9.10
2019-02-10T13:50:19.161Z,9.33
2019-02-10T13:52:47.556Z,8.50
2019-02-10T13:55:16.700Z,9.33
2019-02-10T13:57:45.171Z,8.75
2019-02-10T14:00:24.927Z,8.63
2019-02-10T14:02:53.335Z,8.50
2019-02-10T14:05:22.607Z,8.35
2019-02-10T14:07:51.315Z,7.55
2019-02-10T14:10:25.440Z,8.83
2019-02-10T14:12:50.024Z,7.25
2019-02-10T14:15:19.823Z,8.23
2019-02-10T14:17:48.306Z,8.03
2019-02-10T14:20:18.038Z,8.58
2019-02-10T14:22:46.431Z,9.48
2019-02-10T14:25:14.900Z,14.75
2019-02-10T14:27:43.362Z,9.73
2019-02-10T14:30:14.680Z,8.70
2019-02-10T14:32:43.156Z,9.48
2019-02-10T14:35:11.629Z,8.40
2019-02-10T14:37:43.258Z,8.23
2019-02-10T14:40:11.817Z,8.03
2019-02-10T14:42:40.227Z,9.65
2019-02-10T14:45:13.310Z,9.75
2019-02-10T14:47:41.703Z,10.25
2019-02-10T14:50:15.839Z,9.28
2019-02-10T14:52:44.308Z,8.70
2019-02-10T14:55:12.778Z,10.78
2019-02-10T14:57:41.185Z,10.30
2019-02-10T15:00:12.315Z,10.13
2019-02-10T15:02:40.745Z,10.18
2019-02-10T15:05:11.890Z,11.68
2019-02-10T15:07:41.396Z,10.72
2019-02-10T15:10:13.064Z,11.57
2019-02-10T15:12:44.097Z,9.38
2019-02-10T15:15:12.574Z,11.40
2019-02-10T15:17:40.966Z,9.38
2019-02-10T15:20:10.831Z,9.48
2019-02-10T15:22:39.383Z,8.90
2019-02-10T15:25:14.298Z,10.70
2019-02-10T15:27:42.913Z,9.55
2019-02-10T15:30:13.059Z,10.45
2019-02-10T15:32:41.483Z,9.88
2019-02-10T15:35:09.892Z,10.50
2019-02-10T15:37:38.559Z,13.72
2019-02-10T15:40:09.288Z,12.47
2019-02-10T15:42:37.711Z,11.10
2019-02-10T15:45:09.165Z,10.78
2019-02-10T15:47:37.567Z,11.73
2019-02-10T15:50:09.020Z,11.50
2019-02-10T15:52:37.413Z,11.90
2019-02-10T15:55:07.748Z,12.30
2019-02-10T15:57:36.288Z,11.93
2019-02-10T16:00:08.028Z,11.65
2019-02-10T16:02:36.668Z,12.55
2019-02-10T16:05:05.847Z,12.55
2019-02-10T16:07:34.256Z,11.53
2019-02-10T16:10:03.972Z,13.00
2019-02-10T16:12:32.441Z,11.65
2019-02-10T16:15:00.979Z,13.43
2019-02-10T16:17:29.605Z,12.58
2019-02-10T16:19:58.102Z,12.60
2019-02-10T16:22:26.575Z,13.32
2019-02-10T16:24:56.804Z,12.88
2019-02-10T16:27:25.403Z,12.43
2019-02-10T16:29:53.856Z,13.93
2019-02-10T16:32:22.389Z,14.38
2019-02-10T16:34:50.812Z,12.88
2019-02-10T16:37:20.606Z,12.70
2019-02-10T16:39:49.516Z,11.70
2019-02-10T16:42:17.980Z,14.43
2019-02-10T16:44:46.384Z,12.82
2019-02-10T16:47:14.808Z,13.32
2019-02-10T16:49:43.236Z,11.55
2019-02-10T16:52:11.634Z,12.82
2019-02-10T16:54:40.048Z,12.10
2019-02-10T16:57:10.291Z,12.60
2019-02-10T16:59:38.811Z,11.60
2019-02-10T17:02:07.210Z,10.53
2019-02-10T17:04:35.619Z,10.88
2019-02-10T17:07:04.025Z,11.65
2019-02-10T17:09:32.456Z,12.55
2019-02-10T17:12:01.749Z,10.72
2019-02-10T17:14:30.143Z,10.90
2019-02-10T17:16:58.627Z,11.73
2019-02-10T17:19:27.036Z,12.35
2019-02-10T17:21:56.715Z,12.13
2019-02-10T17:24:25.130Z,13.48
2019-02-10T17:26:56.367Z,13.60
2019-02-10T17:29:24.773Z,12.78
2019-02-10T17:31:53.190Z,13.53
2019-02-10T17:34:21.586Z,13.93
2019-02-10T17:36:50.088Z,15.13
2019-02-10T17:39:18.583Z,16.40
2019-02-10T17:41:47.159Z,15.53
2019-02-10T17:44:15.638Z,14.95
2019-02-10T17:46:44.109Z,15.83
2019-02-10T17:49:12.568Z,15.60
2019-02-10T17:51:41.036Z,15.93
2019-02-10T17:54:09.459Z,15.70
2019-02-10T17:56:38.082Z,15.65
2019-02-10T17:59:06.472Z,16.02
2019-02-10T18:01:34.940Z,17.95
2019-02-10T18:04:03.399Z,17.23
2019-02-10T18:06:32.856Z,18.57
2019-02-10T18:09:01.307Z,17.37
2019-02-10T18:11:31.109Z,17.77
2019-02-10T18:14:01.528Z,17.32
2019-02-10T18:16:31.567Z,17.48
2019-02-10T18:19:10.679Z,18.75
2019-02-10T18:21:40.775Z,18.48
2019-02-10T18:24:27.259Z,19.95
2019-02-10T18:27:00.142Z,19.48
2019-02-10T18:29:37.891Z,18.25
2019-02-10T18:32:10.295Z,19.70
2019-02-10T18:37:15.499Z,20.97
2019-02-10T18:40:02.164Z,20.25
2019-02-10T18:42:32.582Z,17.67
2019-02-10T18:45:17.921Z,18.82
2019-02-10T18:47:47.992Z,21.40
2019-02-10T18:50:34.740Z,19.65
2019-02-10T18:53:19.956Z,20.02
2019-02-10T18:55:56.215Z,20.52
2019-02-10T18:58:29.052Z,19.20
2019-02-10T19:00:59.147Z,19.10
2019-02-10T19:03:29.223Z,19.60
2019-02-10T19:05:59.338Z,17.90
2019-02-10T19:08:29.416Z,19.20
2019-02-10T19:11:11.855Z,19.37
2019-02-10T19:13:51.084Z,20.15
2019-02-10T19:16:27.300Z,18.60
2019-02-10T19:19:01.751Z,19.00
2019-02-10T19:21:32.335Z,19.67
2019-02-10T19:24:08.957Z,19.60
2019-02-10T19:26:44.829Z,18.32
2019-02-10T19:29:31.351Z,20.15
2019-02-10T19:32:01.535Z,20.05
2019-02-10T19:34:31.647Z,20.10
2019-02-10T19:37:04.644Z,20.95
2019-02-10T19:39:42.262Z,22.13
2019-02-10T19:42:24.218Z,18.80
2019-02-10T19:44:57.147Z,18.48
2019-02-10T19:47:29.968Z,17.82
2019-02-10T19:50:00.003Z,19.52
2019-02-10T19:52:33.063Z,18.15
2019-02-10T19:55:08.861Z,19.40
2019-02-10T19:57:41.824Z,19.20
2019-02-10T20:00:21.419Z,17.55
2019-02-10T20:02:51.543Z,17.95
2019-02-10T20:05:24.478Z,17.57
2019-02-10T20:07:57.711Z,17.57
2019-02-10T20:10:30.467Z,18.05
2019-02-10T20:13:00.607Z,18.10
2019-02-10T20:15:37.789Z,17.80
2019-02-10T20:18:29.979Z,18.05
2019-02-10T20:21:14.804Z,16.57
2019-02-10T20:23:57.569Z,17.60
2019-02-10T20:26:27.679Z,17.98
2019-02-10T20:28:57.849Z,17.67
2019-02-10T20:31:27.915Z,17.67
2019-02-10T20:34:03.927Z,17.92
2019-02-10T20:36:45.979Z,19.00
2019-02-10T20:39:20.138Z,19.30
2019-02-10T20:41:50.250Z,18.82
2019-02-10T20:44:29.299Z,17.50
2019-02-10T20:46:59.338Z,17.60
2019-02-10T20:49:31.842Z,18.15
2019-02-10T20:54:43.083Z,17.60
2019-02-10T20:57:13.120Z,17.67
2019-02-10T20:59:59.680Z,18.98
2019-02-10T21:02:35.472Z,17.50
2019-02-10T21:05:05.822Z,18.85
2019-02-10T21:07:38.796Z,18.92
2019-02-10T21:10:18.292Z,17.55
2019-02-10T21:12:51.055Z,18.65
2019-02-10T21:15:37.432Z,18.57
2019-02-10T21:18:07.468Z,19.12
2019-02-10T21:20:37.512Z,18.57
2019-02-10T21:23:10.656Z,19.25
2019-02-10T21:25:40.692Z,19.50
2019-02-10T21:28:10.734Z,21.57
2019-02-10T21:30:57.311Z,20.60
2019-02-10T21:33:43.707Z,19.15
2019-02-10T21:36:22.811Z,19.75
2019-02-10T21:38:55.576Z,20.35
2019-02-10T21:41:28.392Z,19.85
2019-02-10T21:44:14.981Z,19.10
2019-02-10T21:46:44.996Z,20.30
2019-02-10T21:49:13.404Z,19.52
2019-02-10T21:51:42.039Z,20.17
2019-02-10T21:54:10.432Z,17.30
2019-02-10T21:56:38.847Z,18.65
2019-02-10T21:59:07.243Z,19.90
2019-02-10T22:01:35.747Z,19.20
2019-02-10T22:04:04.151Z,19.42
2019-02-10T22:06:32.543Z,19.73
2019-02-10T22:09:03.135Z,19.82
2019-02-10T22:11:31.454Z,20.15
2019-02-10T22:13:59.844Z,20.12
2019-02-10T22:16:28.248Z,18.55
2019-02-10T22:18:56.647Z,19.42
2019-02-10T22:21:25.069Z,18.42
2019-02-10T22:23:53.463Z,17.77
2019-02-10T22:26:21.871Z,18.15
2019-02-10T22:28:50.275Z,17.73
2019-02-10T22:31:19.192Z,17.60
2019-02-10T22:33:51.478Z,18.10
2019-02-10T22:36:17.908Z,17.40
2019-02-10T22:38:46.308Z,16.80
2019-02-10T22:41:14.707Z,17.42
2019-02-10T22:43:43.095Z,16.70
2019-02-10T22:46:11.523Z,16.27
2019-02-10T22:48:39.921Z,17.98
2019-02-10T22:51:10.107Z,16.77
2019-02-10T22:53:38.367Z,17.07
2019-02-10T22:56:06.760Z,18.32
2019-02-10T22:58:35.223Z,17.12
2019-02-10T23:01:04.163Z,17.87
2019-02-10T23:03:32.560Z,18.77
2019-02-10T23:06:00.968Z,18.60
2019-02-10T23:08:29.360Z,19.27
2019-02-10T23:10:57.779Z,17.87
2019-02-10T23:13:26.207Z,19.65
2019-02-10T23:15:54.671Z,18.77
2019-02-10T23:18:23.071Z,17.48
2019-02-10T23:20:53.615Z,19.62
2019-02-10T23:23:21.800Z,18.32
2019-02-10T23:25:50.199Z,18.90
2019-02-10T23:28:18.589Z,19.48
2019-02-10T23:30:47.137Z,18.42
2019-02-10T23:33:15.592Z,19.30
2019-02-10T23:35:44.024Z,20.60
2019-02-10T23:38:12.423Z,20.17
2019-02-10T23:40:40.886Z,20.25
2019-02-10T23:43:09.383Z,20.15
2019-02-10T23:45:37.835Z,20.35
2019-02-10T23:48:06.263Z,19.25
2019-02-10T23:50:34.663Z,21.35
2019-02-10T23:53:03.055Z,19.75
2019-02-10T23:55:31.459Z,20.35
2019-02-10T23:57:59.852Z,20.32
